Harbor Emperor — WCY6430 — position and weather

sailwx.info

Track history (hours):
 
Tides and Currents Weather Stations Pressure Air Temp Water Temp Dewpoint Dewpoint Depression Visibility Wind Speed Wind Dir Waves Ship Positions

Harbor Emperor

Owner: BLUE & GOLD FLEET, SAN FRANCISCO, CA. More information available from US FCC via Universal Licensing System and Coast Guard Vessel Documentation Center.

Last reported at 2017-Mar-30 01:33 UTC. Time now 2017-Mar-30 06:49 UTC.
Position N 37°49' W 122°25'.

Length 31 m.

Type: Passenger vessel. MMSI: 366985270.

Date/timePositionNaut miles runAvg speedWind from/ knotsBaromVisibWave heightAir tempDewpointWater temp
2017-Mar-30 01:33N 37°49' W 122°25'0 0.0
2017-Mar-30 00:34N 37°49' W 122°25'0 0.0
2017-Mar-29 23:34N 37°49' W 122°25'3 3.3
2017-Mar-29 22:34N 37°49' W 122°29'3 3.3
2017-Mar-29 21:34N 37°49' W 122°25'3 2.7
2017-Mar-29 20:33N 37°49' W 122°28'4 3.7
2017-Mar-29 19:33N 37°48' W 122°24'1 1.0
2017-Mar-29 18:34N 37°49' W 122°25'2 2.1
2017-Mar-29 17:33N 37°49' W 122°27'2 0.1
2017-Mar-29 01:33N 37°49' W 122°25'0 0.0
2017-Mar-29 00:33N 37°49' W 122°25'0 0.0
2017-Mar-28 23:33N 37°49' W 122°25'3 2.8
2017-Mar-28 22:33N 37°49' W 122°28'3 2.8
2017-Mar-28 21:34N 37°49' W 122°25'3 2.8
2017-Mar-28 20:34N 37°49' W 122°28'3 2.5
2017-Mar-28 19:34N 37°50' W 122°25'1 1.0
2017-Mar-28 18:34N 37°49' W 122°25'2 2.2
2017-Mar-28 17:34N 37°49' W 122°27'2 2.1
2017-Mar-28 16:34N 37°49' W 122°25'1 0.1
2017-Mar-28 02:33N 37°48' W 122°23'4 3.8
2017-Mar-28 01:33N 37°48' W 122°19'0 0.3
2017-Mar-28 00:33N 37°48' W 122°19'3 2.9
2017-Mar-27 23:33N 37°48' W 122°23'2 1.8
2017-Mar-27 22:33N 37°49' W 122°25'0 0.0
2017-Mar-27 21:33N 37°49' W 122°25'0 0.0
2017-Mar-27 20:33N 37°49' W 122°25'1 0.9
2017-Mar-27 19:33N 37°49' W 122°25'1 0.8
2017-Mar-27 18:33N 37°49' W 122°25'2 2.4
2017-Mar-27 17:34N 37°49' W 122°28'2 0.1
2017-Mar-27 00:21N 37°49' W 122°25'4 4.7
2017-Mar-26 23:33N 37°52' W 122°26'4 3.8
2017-Mar-26 22:33N 37°49' W 122°25'4 4.0
2017-Mar-26 21:33N 37°51' W 122°28'4 3.6
2017-Mar-26 20:33N 37°49' W 122°25'4 4.0
2017-Mar-26 19:33N 37°52' W 122°27'2 2.4
2017-Mar-26 18:34N 37°50' W 122°26'2 2.2
2017-Mar-26 17:33N 37°52' W 122°27'4 4.1
2017-Mar-26 16:33N 37°49' W 122°25'0 0.0
2017-Mar-26 03:34N 37°49' W 122°25'3 3.0
2017-Mar-26 02:34N 37°50' W 122°28'3 3.0
2017-Mar-26 01:33N 37°49' W 122°25'0 0.4
2017-Mar-26 00:33N 37°49' W 122°25'3 3.3
2017-Mar-25 23:33N 37°52' W 122°27'2 2.2
2017-Mar-25 22:33N 37°50' W 122°26'3 2.5
2017-Mar-25 21:33N 37°52' W 122°27'4 3.7
2017-Mar-25 20:34N 37°49' W 122°25'4 3.7
2017-Mar-25 19:33N 37°51' W 122°29'4 4.2
2017-Mar-25 18:33N 37°49' W 122°25'4 3.7
2017-Mar-25 17:33N 37°52' W 122°26'4 3.7
2017-Mar-25 16:32N 37°49' W 122°25'0 0.0
2017-Mar-25 15:31N 37°49' W 122°25'0 0.0
2017-Mar-25 14:31N 37°49' W 122°25'0 0.0
2017-Mar-25 13:31N 37°49' W 122°25'0 0.0
2017-Mar-25 12:31N 37°49' W 122°25'0 0.0
2017-Mar-25 11:31N 37°49' W 122°25'0 0.0
2017-Mar-25 10:31N 37°49' W 122°25'0 0.0
2017-Mar-25 09:31N 37°49' W 122°25'0 0.0
2017-Mar-25 08:31N 37°49' W 122°25'0 0.0
2017-Mar-25 07:31N 37°49' W 122°25'0 0.0
2017-Mar-25 06:31N 37°49' W 122°25'0 0.0
2017-Mar-25 05:31N 37°49' W 122°25'0 0.0
2017-Mar-25 04:31N 37°49' W 122°25'0 0.0
2017-Mar-25 03:25N 37°49' W 122°25'0 0.0
2017-Mar-25 02:31N 37°49' W 122°25'0 0.0
2017-Mar-25 00:31N 37°49' W 122°25'0 0.1
2017-Mar-24 23:33N 37°49' W 122°25'2 2.3
2017-Mar-24 22:33N 37°49' W 122°28'2 2.3
2017-Mar-24 21:33N 37°49' W 122°25'2 2.3
2017-Mar-24 20:33N 37°49' W 122°28'3 2.9
2017-Mar-24 19:33N 37°49' W 122°24'1 0.6
2017-Mar-24 18:33N 37°49' W 122°25'2 2.3
2017-Mar-24 17:33N 37°49' W 122°27'2 2.3
2017-Mar-24 16:33N 37°49' W 122°25'1 0.8
2017-Mar-24 15:33N 37°48' W 122°24'0 0.0
2017-Mar-24 14:33N 37°48' W 122°24'0 0.0
2017-Mar-24 13:33N 37°48' W 122°24'0 0.0
2017-Mar-24 12:33N 37°48' W 122°24'0 0.0
2017-Mar-24 11:33N 37°48' W 122°24'0 0.0
2017-Mar-24 10:33N 37°48' W 122°24'0 0.0
2017-Mar-24 09:33N 37°48' W 122°24'0 0.0
2017-Mar-24 08:33N 37°48' W 122°24'0 0.0
2017-Mar-24 07:33N 37°48' W 122°24'0 0.0
2017-Mar-24 06:33N 37°48' W 122°24'0 0.0
2017-Mar-24 05:33N 37°48' W 122°24'0 0.0
2017-Mar-24 04:33N 37°48' W 122°24'0 0.0
2017-Mar-24 03:33N 37°48' W 122°24'0 0.0
2017-Mar-24 02:33N 37°48' W 122°24'0 0.0
2017-Mar-24 01:33N 37°48' W 122°24'1 0.8
2017-Mar-24 00:33N 37°49' W 122°25'0 0.0
2017-Mar-23 23:33N 37°49' W 122°25'2 2.1
2017-Mar-23 22:33N 37°49' W 122°27'2 2.1
2017-Mar-23 21:33N 37°49' W 122°25'2 2.4
2017-Mar-23 20:33N 37°49' W 122°28'3 3.2
2017-Mar-23 19:33N 37°49' W 122°24'1 0.9
2017-Mar-23 18:33N 37°49' W 122°25'3 2.6
2017-Mar-23 17:33N 37°49' W 122°28'3 2.7
2017-Mar-23 16:33N 37°49' W 122°25'0 0.0
2017-Mar-23 15:33N 37°49' W 122°25'0 0.0
2017-Mar-23 14:33N 37°49' W 122°25'0 0.0
2017-Mar-23 13:33N 37°49' W 122°25'0 0.0
2017-Mar-23 12:33N 37°49' W 122°25'0 0.0
2017-Mar-23 11:33N 37°49' W 122°25'0 0.0
2017-Mar-23 10:33N 37°49' W 122°25'0 0.0
2017-Mar-23 09:33N 37°49' W 122°25'0 0.0
2017-Mar-23 08:33N 37°49' W 122°25'0 0.0
2017-Mar-23 07:33N 37°49' W 122°25'0 0.0
2017-Mar-23 06:33N 37°49' W 122°25'0 0.0
2017-Mar-23 05:33N 37°49' W 122°25'0 0.0
2017-Mar-23 04:33N 37°49' W 122°25'0 0.0
2017-Mar-23 03:33N 37°49' W 122°25'0 0.0
2017-Mar-23 02:33N 37°49' W 122°25'0 0.0
2017-Mar-23 01:33N 37°49' W 122°25'0 0.0
2017-Mar-23 00:33N 37°49' W 122°25'0 0.0
2017-Mar-22 23:34N 37°49' W 122°25'2 1.9
2017-Mar-22 22:33N 37°49' W 122°27'2 1.9
2017-Mar-22 21:33N 37°49' W 122°25'3 2.5
2017-Mar-22 20:34N 37°49' W 122°28'2 2.4
2017-Mar-22 19:33N 37°49' W 122°25'1 0.7
2017-Mar-22 18:34N 37°49' W 122°25'2 2.2
2017-Mar-22 17:33N 37°49' W 122°27'2 0.1
2017-Mar-22 00:20N 37°49' W 122°25'0 0.3
2017-Mar-21 23:33N 37°49' W 122°25'2 2.2
2017-Mar-21 22:34N 37°49' W 122°27'2 2.2
2017-Mar-21 21:33N 37°49' W 122°25'2 2.0
2017-Mar-21 20:33N 37°49' W 122°27'2 1.7
2017-Mar-21 19:33N 37°50' W 122°25'1 1.0
2017-Mar-21 18:34N 37°49' W 122°25'3 2.8
2017-Mar-21 17:33N 37°49' W 122°28'3 0.2
2017-Mar-21 00:19N 37°49' W 122°24'0 0.3
2017-Mar-20 23:33N 37°49' W 122°25'3 2.6
2017-Mar-20 22:33N 37°49' W 122°28'3 2.6
2017-Mar-20 21:34N 37°49' W 122°25'2 2.5
2017-Mar-20 20:33N 37°49' W 122°28'2 2.1
2017-Mar-20 19:33N 37°50' W 122°25'1 1.1
2017-Mar-20 18:33N 37°49' W 122°25'2 2.3
2017-Mar-20 17:34N 37°49' W 122°28'  
Track history (hours):
 
Tides and Currents Weather Stations Pressure Air Temp Water Temp Dewpoint Dewpoint Depression Visibility Wind Speed Wind Dir Waves Ship Positions

Harbor Emperor

Owner: BLUE & GOLD FLEET, SAN FRANCISCO, CA. More information available from US FCC via Universal Licensing System and Coast Guard Vessel Documentation Center.

Last reported at 2017-Mar-30 01:33 UTC. Time now 2017-Mar-30 06:49 UTC.
Position N 37°49' W 122°25'.

Length 31 m.

Type: Passenger vessel. MMSI: 366985270.

Date/timePositionNaut miles runAvg speedWind from/ knotsBaromVisibWave heightAir tempDewpointWater temp
2017-Mar-30 01:33N 37°49' W 122°25'0 0.0
2017-Mar-30 00:34N 37°49' W 122°25'0 0.0
2017-Mar-29 23:34N 37°49' W 122°25'3 3.3
2017-Mar-29 22:34N 37°49' W 122°29'3 3.3
2017-Mar-29 21:34N 37°49' W 122°25'3 2.7
2017-Mar-29 20:33N 37°49' W 122°28'4 3.7
2017-Mar-29 19:33N 37°48' W 122°24'1 1.0
2017-Mar-29 18:34N 37°49' W 122°25'2 2.1
2017-Mar-29 17:33N 37°49' W 122°27'2 0.1
2017-Mar-29 01:33N 37°49' W 122°25'0 0.0
2017-Mar-29 00:33N 37°49' W 122°25'0 0.0
2017-Mar-28 23:33N 37°49' W 122°25'3 2.8
2017-Mar-28 22:33N 37°49' W 122°28'3 2.8
2017-Mar-28 21:34N 37°49' W 122°25'3 2.8
2017-Mar-28 20:34N 37°49' W 122°28'3 2.5
2017-Mar-28 19:34N 37°50' W 122°25'1 1.0
2017-Mar-28 18:34N 37°49' W 122°25'2 2.2
2017-Mar-28 17:34N 37°49' W 122°27'2 2.1
2017-Mar-28 16:34N 37°49' W 122°25'1 0.1
2017-Mar-28 02:33N 37°48' W 122°23'4 3.8
2017-Mar-28 01:33N 37°48' W 122°19'0 0.3
2017-Mar-28 00:33N 37°48' W 122°19'3 2.9
2017-Mar-27 23:33N 37°48' W 122°23'2 1.8
2017-Mar-27 22:33N 37°49' W 122°25'0 0.0
2017-Mar-27 21:33N 37°49' W 122°25'0 0.0
2017-Mar-27 20:33N 37°49' W 122°25'1 0.9
2017-Mar-27 19:33N 37°49' W 122°25'1 0.8
2017-Mar-27 18:33N 37°49' W 122°25'2 2.4
2017-Mar-27 17:34N 37°49' W 122°28'2 0.1
2017-Mar-27 00:21N 37°49' W 122°25'4 4.7
2017-Mar-26 23:33N 37°52' W 122°26'4 3.8
2017-Mar-26 22:33N 37°49' W 122°25'4 4.0
2017-Mar-26 21:33N 37°51' W 122°28'4 3.6
2017-Mar-26 20:33N 37°49' W 122°25'4 4.0
2017-Mar-26 19:33N 37°52' W 122°27'2 2.4
2017-Mar-26 18:34N 37°50' W 122°26'2 2.2
2017-Mar-26 17:33N 37°52' W 122°27'4 4.1
2017-Mar-26 16:33N 37°49' W 122°25'0 0.0
2017-Mar-26 03:34N 37°49' W 122°25'3 3.0
2017-Mar-26 02:34N 37°50' W 122°28'3 3.0
2017-Mar-26 01:33N 37°49' W 122°25'0 0.4
2017-Mar-26 00:33N 37°49' W 122°25'3 3.3
2017-Mar-25 23:33N 37°52' W 122°27'2 2.2
2017-Mar-25 22:33N 37°50' W 122°26'3 2.5
2017-Mar-25 21:33N 37°52' W 122°27'4 3.7
2017-Mar-25 20:34N 37°49' W 122°25'4 3.7
2017-Mar-25 19:33N 37°51' W 122°29'4 4.2
2017-Mar-25 18:33N 37°49' W 122°25'4 3.7
2017-Mar-25 17:33N 37°52' W 122°26'4 3.7
2017-Mar-25 16:32N 37°49' W 122°25'0 0.0
2017-Mar-25 15:31N 37°49' W 122°25'0 0.0
2017-Mar-25 14:31N 37°49' W 122°25'0 0.0
2017-Mar-25 13:31N 37°49' W 122°25'0 0.0
2017-Mar-25 12:31N 37°49' W 122°25'0 0.0
2017-Mar-25 11:31N 37°49' W 122°25'0 0.0
2017-Mar-25 10:31N 37°49' W 122°25'0 0.0
2017-Mar-25 09:31N 37°49' W 122°25'0 0.0
2017-Mar-25 08:31N 37°49' W 122°25'0 0.0
2017-Mar-25 07:31N 37°49' W 122°25'0 0.0
2017-Mar-25 06:31N 37°49' W 122°25'0 0.0
2017-Mar-25 05:31N 37°49' W 122°25'0 0.0
2017-Mar-25 04:31N 37°49' W 122°25'0 0.0
2017-Mar-25 03:25N 37°49' W 122°25'0 0.0
2017-Mar-25 02:31N 37°49' W 122°25'0 0.0
2017-Mar-25 00:31N 37°49' W 122°25'0 0.1
2017-Mar-24 23:33N 37°49' W 122°25'2 2.3
2017-Mar-24 22:33N 37°49' W 122°28'2 2.3
2017-Mar-24 21:33N 37°49' W 122°25'2 2.3
2017-Mar-24 20:33N 37°49' W 122°28'3 2.9
2017-Mar-24 19:33N 37°49' W 122°24'1 0.6
2017-Mar-24 18:33N 37°49' W 122°25'2 2.3
2017-Mar-24 17:33N 37°49' W 122°27'2 2.3
2017-Mar-24 16:33N 37°49' W 122°25'1 0.8
2017-Mar-24 15:33N 37°48' W 122°24'0 0.0
2017-Mar-24 14:33N 37°48' W 122°24'0 0.0
2017-Mar-24 13:33N 37°48' W 122°24'0 0.0
2017-Mar-24 12:33N 37°48' W 122°24'0 0.0
2017-Mar-24 11:33N 37°48' W 122°24'0 0.0
2017-Mar-24 10:33N 37°48' W 122°24'0 0.0
2017-Mar-24 09:33N 37°48' W 122°24'0 0.0
2017-Mar-24 08:33N 37°48' W 122°24'0 0.0
2017-Mar-24 07:33N 37°48' W 122°24'0 0.0
2017-Mar-24 06:33N 37°48' W 122°24'0 0.0
2017-Mar-24 05:33N 37°48' W 122°24'0 0.0
2017-Mar-24 04:33N 37°48' W 122°24'0 0.0
2017-Mar-24 03:33N 37°48' W 122°24'0 0.0
2017-Mar-24 02:33N 37°48' W 122°24'0 0.0
2017-Mar-24 01:33N 37°48' W 122°24'1 0.8
2017-Mar-24 00:33N 37°49' W 122°25'0 0.0
2017-Mar-23 23:33N 37°49' W 122°25'2 2.1
2017-Mar-23 22:33N 37°49' W 122°27'2 2.1
2017-Mar-23 21:33N 37°49' W 122°25'2 2.4
2017-Mar-23 20:33N 37°49' W 122°28'3 3.2
2017-Mar-23 19:33N 37°49' W 122°24'1 0.9
2017-Mar-23 18:33N 37°49' W 122°25'3 2.6
2017-Mar-23 17:33N 37°49' W 122°28'3 2.7
2017-Mar-23 16:33N 37°49' W 122°25'0 0.0
2017-Mar-23 15:33N 37°49' W 122°25'0 0.0
2017-Mar-23 14:33N 37°49' W 122°25'0 0.0
2017-Mar-23 13:33N 37°49' W 122°25'0 0.0
2017-Mar-23 12:33N 37°49' W 122°25'0 0.0
2017-Mar-23 11:33N 37°49' W 122°25'0 0.0
2017-Mar-23 10:33N 37°49' W 122°25'0 0.0
2017-Mar-23 09:33N 37°49' W 122°25'0 0.0
2017-Mar-23 08:33N 37°49' W 122°25'0 0.0
2017-Mar-23 07:33N 37°49' W 122°25'0 0.0
2017-Mar-23 06:33N 37°49' W 122°25'0 0.0
2017-Mar-23 05:33N 37°49' W 122°25'0 0.0
2017-Mar-23 04:33N 37°49' W 122°25'0 0.0
2017-Mar-23 03:33N 37°49' W 122°25'0 0.0
2017-Mar-23 02:33N 37°49' W 122°25'0 0.0
2017-Mar-23 01:33N 37°49' W 122°25'0 0.0
2017-Mar-23 00:33N 37°49' W 122°25'0 0.0
2017-Mar-22 23:34N 37°49' W 122°25'2 1.9
2017-Mar-22 22:33N 37°49' W 122°27'2 1.9
2017-Mar-22 21:33N 37°49' W 122°25'3 2.5
2017-Mar-22 20:34N 37°49' W 122°28'2 2.4
2017-Mar-22 19:33N 37°49' W 122°25'1 0.7
2017-Mar-22 18:34N 37°49' W 122°25'2 2.2
2017-Mar-22 17:33N 37°49' W 122°27'2 0.1
2017-Mar-22 00:20N 37°49' W 122°25'0 0.3
2017-Mar-21 23:33N 37°49' W 122°25'2 2.2
2017-Mar-21 22:34N 37°49' W 122°27'2 2.2
2017-Mar-21 21:33N 37°49' W 122°25'2 2.0
2017-Mar-21 20:33N 37°49' W 122°27'2 1.7
2017-Mar-21 19:33N 37°50' W 122°25'1 1.0
2017-Mar-21 18:34N 37°49' W 122°25'3 2.8
2017-Mar-21 17:33N 37°49' W 122°28'3 0.2
2017-Mar-21 00:19N 37°49' W 122°24'0 0.3
2017-Mar-20 23:33N 37°49' W 122°25'3 2.6
2017-Mar-20 22:33N 37°49' W 122°28'3 2.6
2017-Mar-20 21:34N 37°49' W 122°25'2 2.5
2017-Mar-20 20:33N 37°49' W 122°28'2 2.1
2017-Mar-20 19:33N 37°50' W 122°25'1 1.1
2017-Mar-20 18:33N 37°49' W 122°25'2 2.3
2017-Mar-20 17:34N 37°49' W 122°28'  

Dump ship's entire track history